Time;durP1;ratioP1;P1;durP2;ratioP2;P2;SDS_P1;SDS_P2;PMS_P1;PMS_P2;Temp;Humidity;BMP_temperature;BMP_pressure;BME280_temperature;BME280_humidity;BME280_pressure;Samples;Min_cycle;Max_cycle;Signal;HPM_P1;HPM_P2
2021/04/23 00:01:08;;;;;;;7.53;2.80;;;;;;;2.68;65.71;99607.38;5090185;28;20028;-69
2021/04/23 00:03:36;;;;;;;9.75;2.90;;;;;;;2.61;66.19;99602.56;5092106;28;20024;-68
2021/04/23 00:06:07;;;;;;;7.97;2.92;;;;;;;2.70;66.47;99610.75;5086388;28;20052;-68
2021/04/23 00:08:33;;;;;;;9.63;2.55;;;;;;;2.56;66.53;99607.44;5090635;28;20438;-68
2021/04/23 00:10:59;;;;;;;12.15;2.80;;;;;;;2.51;66.50;99606.16;5089730;28;20051;-68
2021/04/23 00:13:25;;;;;;;10.27;2.58;;;;;;;2.45;66.83;99606.69;5092648;28;20024;-68
2021/04/23 00:15:51;;;;;;;5.13;2.63;;;;;;;2.36;66.60;99608.34;5090390;28;20533;-68
2021/04/23 00:18:17;;;;;;;4.63;2.17;;;;;;;2.27;66.48;99619.78;5074290;28;20034;-68
2021/04/23 00:20:43;;;;;;;7.55;2.50;;;;;;;2.27;65.45;99615.28;5092311;28;20496;-68
2021/04/23 00:23:10;;;;;;;8.10;2.75;;;;;;;2.26;66.49;99610.09;5092066;28;20028;-68
2021/04/23 00:25:35;;;;;;;11.00;2.60;;;;;;;2.37;66.59;99613.53;5089245;28;20485;-68
2021/04/23 00:28:04;;;;;;;7.47;2.55;;;;;;;2.45;67.21;99601.34;5092301;28;20063;-68
2021/04/23 00:30:35;;;;;;;7.78;3.03;;;;;;;2.68;66.95;99600.22;5091388;28;20621;-68
2021/04/23 00:33:01;;;;;;;6.03;2.78;;;;;;;2.60;67.15;99613.38;5091859;28;20039;-68
2021/04/23 00:35:30;;;;;;;9.50;2.70;;;;;;;2.37;67.59;99589.50;5089161;28;20032;-68
2021/04/23 00:37:58;;;;;;;9.45;3.03;;;;;;;2.49;67.68;99603.63;5090905;28;20499;-68
2021/04/23 00:40:26;;;;;;;8.35;3.53;;;;;;;2.40;68.12;99605.25;5089553;28;20477;-67
2021/04/23 00:42:52;;;;;;;10.05;3.05;;;;;;;2.38;67.84;99611.69;5091114;28;20158;-68
2021/04/23 00:45:21;;;;;;;8.15;3.28;;;;;;;2.21;68.18;99598.97;5089216;28;20118;-68
2021/04/23 00:47:49;;;;;;;6.85;2.17;;;;;;;2.42;67.57;99608.63;5091659;28;20085;-67
2021/04/23 00:50:39;;;;;;;8.07;3.15;;;;;;;2.42;67.28;99608.63;5085716;28;20043;-68
2021/04/23 00:53:07;;;;;;;10.60;3.17;;;;;;;2.50;67.45;99607.16;5083429;28;20016;-68
2021/04/23 00:55:32;;;;;;;11.18;3.08;;;;;;;2.56;67.58;99609.28;5089982;28;20035;-67
2021/04/23 00:57:58;;;;;;;11.65;3.88;;;;;;;2.45;68.54;99606.69;5091412;28;20032;-68
2021/04/23 01:00:24;;;;;;;9.38;3.17;;;;;;;2.36;68.13;99603.00;5087533;28;20024;-68
2021/04/23 01:02:49;;;;;;;8.63;2.97;;;;;;;2.21;68.62;99602.47;5091060;28;20115;-68
2021/04/23 01:05:16;;;;;;;8.88;3.30;;;;;;;2.11;68.94;99606.88;5090685;28;20095;-67
2021/04/23 01:07:47;;;;;;;9.18;2.70;;;;;;;2.02;69.64;99604.97;5072754;28;20028;-68
2021/04/23 01:10:13;;;;;;;5.35;2.70;;;;;;;1.97;69.84;99603.56;5089985;28;20028;-68
2021/04/23 01:12:40;;;;;;;7.50;2.78;;;;;;;1.84;70.04;99610.91;5091584;28;20389;-67
2021/04/23 01:15:06;;;;;;;10.98;3.25;;;;;;;1.82;70.47;99604.00;5089008;28;20074;-68
2021/04/23 01:17:31;;;;;;;10.27;3.08;;;;;;;1.72;70.54;99599.41;5092117;28;20024;-68
2021/04/23 01:19:56;;;;;;;11.07;3.45;;;;;;;1.68;71.07;99597.16;5090789;28;20035;-68
2021/04/23 01:22:22;;;;;;;11.27;3.00;;;;;;;1.55;71.00;99605.31;5091374;28;20060;-68
2021/04/23 01:24:47;;;;;;;9.23;3.78;;;;;;;1.53;71.42;99608.09;5075614;28;20020;-68
2021/04/23 01:27:12;;;;;;;11.15;2.97;;;;;;;1.41;71.88;99611.75;5091923;28;20039;-68
2021/04/23 01:29:38;;;;;;;7.53;2.80;;;;;;;1.43;71.91;99615.16;5092604;28;20062;-68
2021/04/23 01:32:03;;;;;;;10.05;2.97;;;;;;;1.48;71.60;99607.63;5071979;28;20020;-68
2021/04/23 01:34:32;;;;;;;7.15;2.75;;;;;;;1.49;72.06;99598.69;5080794;28;20094;-67
2021/04/23 01:36:59;;;;;;;12.95;3.13;;;;;;;1.45;71.99;99607.88;5092051;28;20485;-68
2021/04/23 01:39:27;;;;;;;9.10;2.90;;;;;;;1.41;71.94;99610.91;5092253;28;20028;-70
2021/04/23 01:41:54;;;;;;;12.57;3.15;;;;;;;1.37;71.54;99615.66;5087530;28;20036;-68
2021/04/23 01:44:21;;;;;;;10.00;2.97;;;;;;;1.38;71.92;99612.00;5090593;28;20075;-68
2021/04/23 01:46:47;;;;;;;6.93;3.05;;;;;;;1.32;72.11;99604.53;5092016;28;20081;-68
2021/04/23 01:49:17;;;;;;;8.95;3.10;;;;;;;1.39;72.36;99613.72;5094597;28;20039;-68
2021/04/23 01:51:49;;;;;;;10.77;2.92;;;;;;;1.33;71.93;99600.03;5087666;28;20389;-68
2021/04/23 01:54:16;;;;;;;10.40;3.63;;;;;;;1.28;72.45;99609.28;5077141;28;20036;-68
2021/04/23 01:56:42;;;;;;;10.32;3.05;;;;;;;1.43;72.56;99616.97;5095137;28;20036;-68
2021/04/23 01:59:08;;;;;;;6.32;2.83;;;;;;;1.20;71.79;99605.50;5094490;28;20028;-68
2021/04/23 02:01:34;;;;;;;9.57;3.10;;;;;;;1.15;71.30;99621.03;5074981;28;20047;-68
2021/04/23 02:04:01;;;;;;;9.63;3.30;;;;;;;1.04;72.68;99617.41;5095042;28;20032;-70
2021/04/23 02:06:27;;;;;;;7.63;3.00;;;;;;;0.94;71.94;99621.75;5094439;28;20028;-67
2021/04/23 02:08:52;;;;;;;8.15;3.17;;;;;;;0.80;72.51;99606.03;5094763;28;20112;-68
2021/04/23 02:11:21;;;;;;;9.07;3.10;;;;;;;0.95;72.16;99623.47;5088847;28;20500;-68
2021/04/23 02:13:49;;;;;;;9.77;3.17;;;;;;;1.08;72.33;99626.84;5094382;28;20020;-67
2021/04/23 02:16:17;;;;;;;6.82;2.58;;;;;;;1.01;72.35;99622.97;5070359;28;20059;-67
2021/04/23 02:18:45;;;;;;;7.18;2.95;;;;;;;1.06;71.76;99630.63;5094982;28;20056;-70
2021/04/23 02:21:11;;;;;;;6.35;2.50;;;;;;;1.05;71.46;99631.59;5086158;28;20035;-70
2021/04/23 02:23:41;;;;;;;7.10;2.40;;;;;;;1.00;70.84;99631.94;5074560;28;20496;-70
2021/04/23 02:26:07;;;;;;;5.15;2.53;;;;;;;0.84;71.76;99631.47;5094244;28;20107;-69
2021/04/23 02:28:33;;;;;;;5.75;2.38;;;;;;;0.77;70.99;99640.91;5087009;28;20059;-70
2021/04/23 02:31:03;;;;;;;5.57;2.58;;;;;;;0.84;72.29;99636.81;5076060;28;20534;-70
2021/04/23 02:33:29;;;;;;;9.75;2.72;;;;;;;0.95;72.27;99635.97;5115724;22;20043;-67
2021/04/23 02:35:56;;;;;;;9.43;2.72;;;;;;;0.71;72.28;99604.97;5078315;28;20076;-68
2021/04/23 02:38:22;;;;;;;12.98;2.90;;;;;;;0.93;73.03;99635.22;5090196;28;20023;-68
2021/04/23 02:40:48;;;;;;;9.57;2.65;;;;;;;0.75;73.03;99621.53;5093942;28;20024;-68
2021/04/23 02:43:17;;;;;;;10.45;2.83;;;;;;;0.83;73.21;99643.09;5093430;28;20028;-68
2021/04/23 02:45:44;;;;;;;7.70;3.13;;;;;;;1.05;74.13;99637.75;5073933;28;20042;-68
2021/04/23 02:48:12;;;;;;;7.35;3.15;;;;;;;1.03;73.39;99617.53;5078195;28;20046;-69
2021/04/23 02:50:40;;;;;;;9.45;3.33;;;;;;;1.26;73.13;99637.88;5080380;28;20028;-69
2021/04/23 02:53:06;;;;;;;11.40;3.25;;;;;;;1.06;73.35;99647.44;5078778;28;20653;-68
2021/04/23 02:55:33;;;;;;;14.10;3.55;;;;;;;0.88;73.42;99648.91;5068054;28;20032;-68
2021/04/23 02:58:07;;;;;;;12.15;3.88;;;;;;;0.71;74.14;99649.38;5079556;28;20112;-69
2021/04/23 03:00:41;;;;;;;8.95;3.83;;;;;;;0.69;74.37;99640.66;5054358;28;20038;-68
2021/04/23 03:03:08;;;;;;;7.88;4.05;;;;;;;0.80;74.72;99653.97;5079210;28;20020;-68
2021/04/23 03:05:36;;;;;;;7.85;3.65;;;;;;;0.63;74.91;99642.84;5078531;28;20081;-68
2021/04/23 03:08:02;;;;;;;9.32;4.00;;;;;;;0.43;74.55;99636.38;5072774;28;20070;-68
2021/04/23 03:10:59;;;;;;;8.57;3.75;;;;;;;0.46;75.66;99655.75;5053617;28;20025;-68
2021/04/23 03:13:27;;;;;;;13.90;4.07;;;;;;;0.42;75.74;99661.31;5061038;28;20505;-68
2021/04/23 03:15:54;;;;;;;6.03;3.20;;;;;;;0.37;74.46;99657.31;5081717;28;20043;-68
2021/04/23 03:18:22;;;;;;;11.52;3.22;;;;;;;0.46;74.08;99655.75;5078476;28;20036;-67
2021/04/23 03:20:49;;;;;;;7.80;2.75;;;;;;;0.37;72.96;99662.66;5084037;28;20032;-68
2021/04/23 03:23:15;;;;;;;6.97;2.70;;;;;;;0.31;73.49;99657.78;5077506;28;20035;-68
2021/04/23 03:25:41;;;;;;;8.88;2.60;;;;;;;0.28;73.57;99663.34;5079885;28;20385;-67
2021/04/23 03:28:07;;;;;;;9.43;3.03;;;;;;;0.27;73.87;99658.97;5092959;28;20028;-68
2021/04/23 03:30:36;;;;;;;8.55;2.67;;;;;;;0.25;73.84;99661.75;5075729;28;20039;-68
2021/04/23 03:33:03;;;;;;;5.57;2.47;;;;;;;0.28;73.90;99642.03;5078798;28;20033;-68
2021/04/23 03:35:29;;;;;;;7.75;2.72;;;;;;;0.21;74.00;99657.66;5071796;28;20032;-68
2021/04/23 03:37:54;;;;;;;6.00;2.30;;;;;;;0.35;74.02;99676.06;5085855;28;20500;-68
2021/04/23 03:40:23;;;;;;;7.43;2.78;;;;;;;0.23;74.48;99679.63;5054960;28;20028;-68
2021/04/23 03:42:49;;;;;;;4.88;2.42;;;;;;;0.09;74.46;99659.41;5087627;28;20032;-69
2021/04/23 03:45:17;;;;;;;6.82;2.65;;;;;;;0.09;74.21;99670.03;5056159;28;20628;-68
2021/04/23 03:47:43;;;;;;;7.27;2.40;;;;;;;-0.03;74.10;99678.94;5060203;28;20060;-68
2021/04/23 03:50:11;;;;;;;6.90;2.55;;;;;;;-0.01;75.76;99679.69;5073893;28;20037;-68
2021/04/23 03:52:37;;;;;;;11.10;2.83;;;;;;;-0.03;75.48;99681.59;5073276;28;20040;-68
2021/04/23 03:55:06;;;;;;;7.07;3.05;;;;;;;-0.08;75.42;99681.97;5090115;28;20020;-68
2021/04/23 03:57:32;;;;;;;9.15;3.90;;;;;;;-0.05;76.08;99671.09;5072595;28;20048;-68
2021/04/23 03:59:57;;;;;;;13.15;4.47;;;;;;;-0.01;76.24;99674.34;5072578;28;20448;-69
2021/04/23 04:02:23;;;;;;;11.18;4.30;;;;;;;0.03;76.42;99670.50;5056031;28;20032;-68
2021/04/23 04:04:48;;;;;;;8.07;3.83;;;;;;;0.01;75.88;99676.91;5084557;28;20074;-68
2021/04/23 04:07:13;;;;;;;12.40;4.10;;;;;;;0.07;76.31;99682.59;5072380;28;20516;-68
2021/04/23 04:09:38;;;;;;;8.50;3.83;;;;;;;0.06;76.20;99678.25;5074696;28;20024;-68
2021/04/23 04:12:04;;;;;;;5.80;2.72;;;;;;;-0.10;75.92;99672.41;5072323;28;20108;-68
2021/04/23 04:14:29;;;;;;;6.88;3.05;;;;;;;-0.04;75.89;99679.91;5086885;28;20020;-68
2021/04/23 04:16:55;;;;;;;8.00;3.17;;;;;;;-0.14;76.33;99679.75;5056904;28;20062;-68
2021/04/23 04:19:20;;;;;;;7.53;2.97;;;;;;;-0.13;76.11;99691.22;5072825;28;20055;-68
2021/04/23 04:21:45;;;;;;;8.48;3.55;;;;;;;-0.11;76.45;99695.47;5072523;28;20063;-68
2021/04/23 04:24:11;;;;;;;14.65;3.58;;;;;;;-0.13;74.90;99693.88;5073093;28;20440;-69
2021/04/23 04:26:36;;;;;;;7.95;3.08;;;;;;;-0.15;75.18;99696.66;5079826;28;20617;-68
2021/04/23 04:29:02;;;;;;;15.50;3.60;;;;;;;-0.16;76.04;99696.78;5084173;28;20583;-67
2021/04/23 04:31:30;;;;;;;9.00;3.40;;;;;;;-0.13;76.10;99691.22;5069807;28;20035;-68
2021/04/23 04:33:56;;;;;;;8.18;3.22;;;;;;;-0.11;75.66;99689.31;5059943;28;20567;-69
2021/04/23 04:36:22;;;;;;;8.65;3.75;;;;;;;0.02;75.02;99702.53;5064179;28;20036;-68
2021/04/23 04:38:47;;;;;;;8.93;3.13;;;;;;;0.16;76.32;99699.72;5071316;28;20029;-72
2021/04/23 04:41:13;;;;;;;8.02;3.15;;;;;;;0.27;76.48;99710.41;5055100;28;20206;-67
2021/04/23 04:43:39;;;;;;;11.50;3.80;;;;;;;0.37;75.75;99714.06;5066194;28;20035;-68
2021/04/23 04:46:06;;;;;;;12.38;3.30;;;;;;;0.37;74.69;99702.56;5069459;28;20020;-68
2021/04/23 04:48:31;;;;;;;7.82;3.13;;;;;;;0.56;74.74;99710.84;5064430;28;20028;-68
2021/04/23 04:50:59;;;;;;;8.88;3.10;;;;;;;0.59;74.03;99704.44;5061916;28;20025;-68
2021/04/23 04:53:25;;;;;;;6.28;2.83;;;;;;;0.61;73.90;99716.66;5059101;28;20056;-68
2021/04/23 04:55:53;;;;;;;8.00;2.67;;;;;;;0.67;73.79;99717.16;5060615;28;20033;-69
2021/04/23 04:58:22;;;;;;;11.15;3.22;;;;;;;0.88;72.60;99720.81;5066002;28;20387;-68
2021/04/23 05:00:48;;;;;;;5.47;2.70;;;;;;;0.97;71.78;99705.94;5071011;28;20032;-69
2021/04/23 05:03:14;;;;;;;7.65;3.33;;;;;;;1.08;72.10;99724.63;5071178;28;20490;-69
2021/04/23 05:05:41;;;;;;;6.07;3.00;;;;;;;1.21;71.99;99737.81;5071837;28;20020;-68
2021/04/23 05:08:07;;;;;;;10.98;3.20;;;;;;;1.30;71.16;99737.09;5070880;28;20111;-69
2021/04/23 05:10:32;;;;;;;9.45;3.20;;;;;;;1.33;71.31;99731.50;5068203;28;20099;-68
2021/04/23 05:12:58;;;;;;;5.40;3.33;;;;;;;1.46;70.17;99732.22;5070839;28;20296;-69
2021/04/23 05:15:23;;;;;;;8.65;3.38;;;;;;;1.46;70.18;99737.56;5070837;28;20021;-69
2021/04/23 05:17:49;;;;;;;8.43;3.90;;;;;;;1.49;70.08;99741.78;5070181;28;20035;-68
2021/04/23 05:20:18;;;;;;;10.18;3.88;;;;;;;1.47;70.02;99720.59;5071841;28;20032;-75
2021/04/23 05:22:43;;;;;;;10.30;3.80;;;;;;;1.72;69.71;99742.63;5053987;28;20558;-69
2021/04/23 05:25:13;;;;;;;8.00;3.55;;;;;;;1.92;69.94;99755.22;5071617;28;20037;-69
2021/04/23 05:27:38;;;;;;;8.35;3.50;;;;;;;2.11;68.98;99729.69;5069776;28;20064;-69
2021/04/23 05:30:07;;;;;;;15.68;3.63;;;;;;;2.38;69.13;99742.53;5065565;28;20052;-73
2021/04/23 05:32:32;;;;;;;9.50;3.28;;;;;;;2.54;68.67;99744.78;5073106;28;20067;-72
2021/04/23 05:34:57;;;;;;;6.30;3.15;;;;;;;2.93;67.68;99753.91;5073999;28;20052;-69
2021/04/23 05:37:23;;;;;;;9.38;3.22;;;;;;;3.05;66.46;99730.66;5064504;28;20055;-72
2021/04/23 05:39:49;;;;;;;12.93;3.63;;;;;;;3.24;66.46;99741.44;5062910;28;20037;-71
2021/04/23 05:42:15;;;;;;;10.50;3.50;;;;;;;3.53;65.91;99759.44;5063425;28;20032;-69
2021/04/23 05:44:41;;;;;;;7.68;3.28;;;;;;;3.76;65.37;99737.84;5069983;28;20042;-69
2021/04/23 05:47:06;;;;;;;9.95;3.30;;;;;;;4.15;64.14;99761.03;5074008;28;20086;-69
2021/04/23 05:49:33;;;;;;;8.48;3.15;;;;;;;4.48;63.90;99750.91;5063469;28;20032;-69
2021/04/23 05:51:59;;;;;;;8.52;3.45;;;;;;;4.77;62.45;99755.41;5069019;28;20382;-70
2021/04/23 05:54:25;;;;;;;8.05;3.45;;;;;;;5.02;61.31;99756.63;5072930;28;20113;-70
2021/04/23 05:56:50;;;;;;;6.20;2.90;;;;;;;5.54;60.02;99750.81;5074109;28;20110;-70
2021/04/23 05:59:17;;;;;;;5.68;2.63;;;;;;;6.40;58.04;99753.19;5055138;28;20028;-70
2021/04/23 06:01:42;;;;;;;8.15;3.95;;;;;;;7.61;55.39;99757.75;5067369;28;20059;-70
2021/04/23 06:04:07;;;;;;;11.57;3.17;;;;;;;9.56;50.70;99758.19;5070031;28;20040;-70
2021/04/23 06:06:33;;;;;;;7.20;3.00;;;;;;;11.71;45.88;99764.59;5063307;28;20024;-67
2021/04/23 06:08:59;;;;;;;6.13;3.08;;;;;;;13.48;41.67;99754.19;5065476;28;20037;-67
2021/04/23 06:11:24;;;;;;;14.38;3.47;;;;;;;14.60;39.62;99759.31;5069026;28;20033;-67
2021/04/23 06:13:49;;;;;;;7.80;3.00;;;;;;;14.95;37.81;99750.97;5065373;28;20036;-67
2021/04/23 06:16:15;;;;;;;8.23;3.05;;;;;;;15.13;37.29;99740.28;5059032;28;20492;-69
2021/04/23 06:18:41;;;;;;;10.32;3.05;;;;;;;15.95;35.91;99746.25;5069740;28;20504;-70
2021/04/23 06:21:08;;;;;;;7.18;2.92;;;;;;;16.00;35.19;99754.63;5042908;28;20051;-68
2021/04/23 06:23:34;;;;;;;10.35;3.20;;;;;;;15.82;35.85;99746.28;5069289;28;20020;-69
2021/04/23 06:25:59;;;;;;;11.70;3.00;;;;;;;15.68;35.79;99752.81;5073444;28;20030;-65
2021/04/23 06:28:25;;;;;;;12.55;3.25;;;;;;;16.29;35.06;99746.94;5050906;28;20023;-65
2021/04/23 06:30:50;;;;;;;11.25;3.30;;;;;;;16.79;34.52;99744.41;5074639;28;20032;-70
2021/04/23 06:33:21;;;;;;;8.18;2.85;;;;;;;18.04;32.56;99727.03;5073519;28;20028;-72
2021/04/23 06:35:47;;;;;;;7.60;3.40;;;;;;;18.78;31.41;99746.06;5072313;28;22057;-72
2021/04/23 06:38:13;;;;;;;8.38;3.47;;;;;;;20.04;29.86;99752.13;5045920;28;20029;-70
2021/04/23 06:40:38;;;;;;;10.75;2.95;;;;;;;20.02;29.77;99740.56;5067125;28;20024;-69
2021/04/23 06:43:05;;;;;;;9.05;3.22;;;;;;;19.01;30.68;99748.88;5065044;28;20028;-70
2021/04/23 06:45:30;;;;;;;10.48;3.35;;;;;;;19.63;30.46;99745.69;5066159;28;20020;-69
2021/04/23 06:47:56;;;;;;;7.72;3.03;;;;;;;19.83;30.15;99744.50;5064446;28;20166;-68
2021/04/23 06:50:23;;;;;;;8.55;3.10;;;;;;;21.12;28.27;99737.72;5036543;28;20025;-68
2021/04/23 06:52:49;;;;;;;13.82;3.75;;;;;;;20.89;28.69;99735.94;5062864;28;20046;-68
2021/04/23 06:55:17;;;;;;;6.57;2.88;;;;;;;23.15;26.61;99737.84;5072928;28;20099;-68
2021/04/23 06:57:43;;;;;;;7.00;2.88;;;;;;;23.53;26.02;99733.16;5059895;28;20033;-68
2021/04/23 07:00:13;;;;;;;9.25;3.25;;;;;;;22.63;26.79;99741.16;5062150;28;20024;-68
2021/04/23 07:02:38;;;;;;;9.07;3.17;;;;;;;22.53;26.80;99736.38;5063784;28;20016;-67
2021/04/23 07:05:05;;;;;;;11.10;3.05;;;;;;;22.46;27.21;99733.84;5052773;28;20624;-68
2021/04/23 07:07:31;;;;;;;11.50;2.72;;;;;;;21.24;28.21;99733.75;5064547;28;20042;-68
2021/04/23 07:09:56;;;;;;;13.43;3.65;;;;;;;21.67;28.05;99734.19;5064495;28;20028;-68
2021/04/23 07:12:22;;;;;;;7.78;2.85;;;;;;;24.10;26.30;99737.91;5067631;28;20041;-73
2021/04/23 07:14:47;;;;;;;8.75;2.78;;;;;;;25.09;25.04;99732.38;5072196;28;20630;-69
2021/04/23 07:17:12;;;;;;;7.28;3.25;;;;;;;24.87;25.26;99744.53;5072473;28;20047;-71
2021/04/23 07:19:38;;;;;;;7.95;3.10;;;;;;;24.90;25.00;99737.63;5054988;28;20051;-70
2021/04/23 07:22:05;;;;;;;9.20;2.78;;;;;;;26.62;23.73;99734.81;5065472;28;20485;-71
2021/04/23 07:24:30;;;;;;;8.30;3.22;;;;;;;24.88;25.60;99737.06;5065335;28;20025;-73
2021/04/23 07:26:56;;;;;;;7.93;2.92;;;;;;;24.20;26.86;99739.91;5051647;28;20035;-71
2021/04/23 07:29:21;;;;;;;8.02;2.88;;;;;;;25.65;25.36;99739.84;5061017;28;20059;-72
2021/04/23 07:31:46;;;;;;;7.60;2.75;;;;;;;24.86;25.63;99744.81;5072425;28;20024;-77
2021/04/23 07:34:12;;;;;;;11.75;3.28;;;;;;;24.87;25.33;99729.88;5054857;28;20032;-72
2021/04/23 07:36:37;;;;;;;12.00;3.47;;;;;;;24.74;25.87;99741.47;5068460;28;20040;-71
2021/04/23 07:39:03;;;;;;;10.27;3.40;;;;;;;21.99;28.83;99748.13;5041125;28;20039;-71
2021/04/23 07:41:28;;;;;;;14.80;3.88;;;;;;;22.63;28.13;99735.66;5072510;28;20028;-71
2021/04/23 07:43:53;;;;;;;8.52;3.20;;;;;;;23.31;27.96;99723.03;5072270;28;20017;-72
2021/04/23 07:46:19;;;;;;;12.55;3.67;;;;;;;23.39;27.05;99724.50;5062226;28;20024;-71
2021/04/23 07:48:44;;;;;;;7.50;2.85;;;;;;;21.40;29.43;99734.03;5070601;28;20028;-71
2021/04/23 07:51:09;;;;;;;10.70;2.97;;;;;;;23.43;27.67;99730.34;5070751;28;20052;-71
2021/04/23 07:53:35;;;;;;;13.27;3.72;;;;;;;24.97;25.92;99723.50;5047694;28;20070;-72
2021/04/23 07:56:00;;;;;;;8.90;3.08;;;;;;;24.37;26.32;99736.94;5072359;28;20378;-72
2021/04/23 07:58:26;;;;;;;12.50;3.65;;;;;;;23.31;27.61;99734.09;5071969;28;20040;-72
2021/04/23 08:00:51;;;;;;;13.00;3.45;;;;;;;22.95;27.90;99731.03;5071538;28;20020;-72
2021/04/23 08:03:17;;;;;;;12.38;3.30;;;;;;;21.93;28.52;99727.09;5072098;28;20035;-72
2021/04/23 08:05:42;;;;;;;12.05;3.15;;;;;;;24.21;26.28;99728.56;5050987;28;20078;-71
2021/04/23 08:08:07;;;;;;;10.95;3.00;;;;;;;25.64;24.39;99727.09;5068963;28;20400;-72
2021/04/23 08:10:34;;;;;;;8.50;3.20;;;;;;;26.49;23.35;99727.09;5052239;28;20396;-70
2021/04/23 08:13:00;;;;;;;7.15;2.80;;;;;;;26.78;23.40;99731.94;5061921;28;20079;-68
2021/04/23 08:15:26;;;;;;;10.10;3.03;;;;;;;26.84;23.86;99725.22;5064188;28;20063;-68
2021/04/23 08:17:53;;;;;;;12.50;3.25;;;;;;;28.30;21.75;99722.44;5062934;28;20501;-68
2021/04/23 08:20:19;;;;;;;9.05;3.35;;;;;;;25.46;25.65;99734.03;5088194;28;20027;-68
2021/04/23 08:22:45;;;;;;;7.63;3.33;;;;;;;25.17;26.38;99731.03;5070140;28;20033;-68
2021/04/23 08:25:11;;;;;;;8.15;3.55;;;;;;;26.17;24.26;99738.59;5064690;28;20019;-68
2021/04/23 08:27:37;;;;;;;10.40;3.47;;;;;;;26.35;24.01;99726.03;5054368;28;20033;-69
2021/04/23 08:30:08;;;;;;;8.32;3.42;;;;;;;24.27;24.79;99741.31;5064011;28;20035;-68
2021/04/23 08:32:34;;;;;;;9.38;3.75;;;;;;;25.57;24.16;99725.44;5040959;28;20528;-68
2021/04/23 08:34:59;;;;;;;16.00;3.72;;;;;;;26.48;23.82;99732.91;5080730;28;20028;-67
2021/04/23 08:37:25;;;;;;;11.15;3.67;;;;;;;27.20;22.49;99731.38;5071479;28;20028;-67
2021/04/23 08:39:50;;;;;;;7.40;3.60;;;;;;;28.14;22.17;99736.53;5048424;28;20430;-67
2021/04/23 08:42:15;;;;;;;10.82;3.65;;;;;;;28.02;21.69;99735.28;5071736;28;20042;-67
2021/04/23 08:44:41;;;;;;;6.93;3.13;;;;;;;28.61;21.21;99723.69;5075264;28;20029;-68
2021/04/23 08:47:08;;;;;;;10.88;3.67;;;;;;;28.44;21.15;99737.28;5076797;28;20110;-68
2021/04/23 08:49:36;;;;;;;12.20;3.80;;;;;;;28.46;21.07;99721.13;5076383;28;20132;-68
2021/04/23 08:52:01;;;;;;;7.90;3.67;;;;;;;28.60;21.49;99733.16;5069544;28;20035;-67
2021/04/23 08:54:27;;;;;;;8.13;3.83;;;;;;;28.10;21.97;99735.47;5059739;28;20020;-67
2021/04/23 08:56:53;;;;;;;9.43;3.30;;;;;;;28.82;20.42;99735.34;5071204;28;20515;-68
2021/04/23 08:59:18;;;;;;;10.20;3.65;;;;;;;29.31;21.27;99733.19;5073738;28;20025;-67
2021/04/23 09:01:44;;;;;;;10.82;3.50;;;;;;;29.12;21.19;99736.03;5091502;28;20029;-67
2021/04/23 09:04:11;;;;;;;7.53;3.70;;;;;;;29.73;20.46;99733.31;5074926;28;20024;-67
2021/04/23 09:06:36;;;;;;;9.70;3.53;;;;;;;27.61;22.77;99738.47;5074853;28;20032;-67
2021/04/23 09:09:09;;;;;;;8.98;3.92;;;;;;;28.04;21.58;99744.19;5060255;28;20024;-67
2021/04/23 09:11:40;;;;;;;8.52;3.10;;;;;;;29.13;20.93;99742.41;5073296;28;20107;-67
2021/04/23 09:14:08;;;;;;;12.50;3.60;;;;;;;29.18;21.16;99726.44;5074527;28;20020;-67
2021/04/23 09:16:59;;;;;;;13.50;3.38;;;;;;;29.14;21.31;99719.00;5075180;28;20021;-68
2021/04/23 09:19:29;;;;;;;9.23;3.50;;;;;;;29.62;20.63;99713.94;5075824;28;20029;-68
2021/04/23 09:22:04;;;;;;;11.85;3.78;;;;;;;28.60;21.10;99723.97;5073409;28;20036;-68
2021/04/23 09:24:35;;;;;;;8.55;3.75;;;;;;;28.13;22.27;99731.25;5069012;28;20021;-66
2021/04/23 09:27:17;;;;;;;9.15;3.35;;;;;;;28.32;22.10;99732.13;5072967;28;20036;-67
2021/04/23 09:29:45;;;;;;;10.15;3.25;;;;;;;28.37;21.88;99728.44;5074462;28;20043;-66
2021/04/23 09:32:16;;;;;;;12.45;3.58;;;;;;;27.78;21.44;99727.75;5078891;28;20043;-66
2021/04/23 09:35:18;;;;;;;6.07;3.72;;;;;;;27.57;21.44;99734.66;5087088;28;20436;-66
2021/04/23 09:37:43;;;;;;;12.77;4.35;;;;;;;26.78;20.85;99732.75;5052004;28;20458;-67
2021/04/23 09:40:15;;;;;;;9.93;3.70;;;;;;;26.37;22.39;99737.69;5071395;28;20052;-66
2021/04/23 09:43:00;;;;;;;10.02;3.95;;;;;;;26.75;22.69;99732.50;5080143;28;21030;-66
2021/04/23 09:45:28;;;;;;;8.05;3.70;;;;;;;25.90;22.76;99739.81;5069450;28;20032;-66
2021/04/23 09:47:55;;;;;;;7.72;3.88;;;;;;;26.63;21.93;99741.19;5066930;28;20047;-66
2021/04/23 09:50:26;;;;;;;9.50;3.78;;;;;;;28.23;21.33;99727.53;5057037;28;20092;-67
2021/04/23 09:52:55;;;;;;;9.73;3.60;;;;;;;28.39;21.83;99727.00;5076602;28;20094;-65
2021/04/23 09:55:28;;;;;;;11.68;4.32;;;;;;;28.21;21.17;99732.56;5074980;28;20033;-66
2021/04/23 09:58:05;;;;;;;10.63;4.15;;;;;;;27.20;21.91;99733.31;5079112;28;20081;-66
2021/04/23 10:00:33;;;;;;;9.13;3.40;;;;;;;27.78;20.76;99733.31;5071384;28;20032;-67
2021/04/23 10:03:04;;;;;;;8.97;3.57;;;;;;;27.74;21.39;99719.13;5079491;28;20143;-66
2021/04/23 10:05:31;;;;;;;7.57;3.10;;;;;;;27.94;21.53;99729.25;5063010;28;20573;-67
2021/04/23 10:07:57;;;;;;;6.75;3.08;;;;;;;28.44;21.89;99734.50;5065325;28;20397;-66
2021/04/23 10:10:23;;;;;;;6.65;3.10;;;;;;;28.52;21.12;99731.03;5061627;28;20032;-67
2021/04/23 10:12:52;;;;;;;6.80;2.80;;;;;;;29.15;20.36;99724.25;5082432;28;20038;-66
2021/04/23 10:15:29;;;;;;;7.80;2.85;;;;;;;28.21;20.57;99729.78;5073819;28;20020;-67
2021/04/23 10:18:04;;;;;;;6.03;2.88;;;;;;;28.59;20.92;99730.69;5073575;28;20036;-66
2021/04/23 10:20:32;;;;;;;8.50;3.08;;;;;;;28.24;20.41;99720.81;5064616;28;20052;-67
2021/04/23 10:22:59;;;;;;;6.05;3.15;;;;;;;28.07;20.33;99730.50;5065688;28;20516;-67
2021/04/23 10:25:26;;;;;;;8.25;2.88;;;;;;;27.88;18.92;99710.16;5078548;28;20041;-68
2021/04/23 10:27:53;;;;;;;6.78;2.78;;;;;;;27.84;20.53;99720.19;5079383;28;20089;-68
2021/04/23 10:30:21;;;;;;;7.53;3.13;;;;;;;27.46;20.42;99720.03;5066728;28;20048;-67
2021/04/23 10:32:48;;;;;;;6.95;2.90;;;;;;;27.31;19.97;99713.47;5091648;28;20043;-67
2021/04/23 10:35:14;;;;;;;6.13;2.95;;;;;;;27.53;20.96;99715.75;5086387;28;20032;-67
2021/04/23 10:37:41;;;;;;;5.95;2.72;;;;;;;26.94;20.90;99710.44;5070495;28;20392;-67
2021/04/23 10:40:08;;;;;;;9.50;2.40;;;;;;;27.81;20.62;99710.50;5068951;28;20120;-67
2021/04/23 10:42:53;;;;;;;6.22;3.00;;;;;;;27.61;21.21;99702.34;5056325;28;20493;-67
2021/04/23 10:45:46;;;;;;;7.05;2.45;;;;;;;28.60;19.87;99698.91;5067710;28;20031;-67
2021/04/23 10:48:12;;;;;;;8.05;2.67;;;;;;;27.62;20.14;99704.00;5084470;28;20108;-67
2021/04/23 10:50:46;;;;;;;5.53;2.57;;;;;;;27.94;19.96;99697.84;5086247;28;20141;-67
2021/04/23 10:53:15;;;;;;;6.25;2.55;;;;;;;28.95;19.27;99694.75;5056501;28;20024;-67
2021/04/23 10:55:41;;;;;;;6.18;2.60;;;;;;;28.44;19.11;99692.75;5070472;28;20032;-67
2021/04/23 10:58:07;;;;;;;10.33;2.80;;;;;;;28.75;20.09;99697.88;5063394;28;20024;-67
2021/04/23 11:00:37;;;;;;;6.57;2.45;;;;;;;29.42;20.16;99695.66;5051886;28;20029;-66
2021/04/23 11:03:21;;;;;;;6.72;2.60;;;;;;;28.41;20.24;99708.06;5051363;28;20461;-67
2021/04/23 11:06:06;;;;;;;5.57;2.63;;;;;;;28.16;19.17;99706.47;5080001;28;20043;-67
2021/04/23 11:08:34;;;;;;;4.07;2.22;;;;;;;28.94;19.87;99695.88;5076731;28;20406;-67
2021/04/23 11:10:59;;;;;;;6.03;2.28;;;;;;;28.60;19.87;99698.91;5072968;28;20040;-67
2021/04/23 11:13:26;;;;;;;7.03;2.80;;;;;;;26.15;19.45;99699.25;5078239;28;20504;-67
2021/04/23 11:16:16;;;;;;;4.40;2.40;;;;;;;27.93;20.71;99698.97;5080139;28;20075;-67
2021/04/23 11:18:41;;;;;;;5.32;2.38;;;;;;;26.80;19.54;99693.59;5073067;28;20020;-67
2021/04/23 11:21:35;;;;;;;3.67;1.98;;;;;;;27.63;19.54;99689.81;5053789;28;20036;-67
2021/04/23 11:24:15;;;;;;;6.47;2.80;;;;;;;28.29;19.89;99692.94;5064527;28;20072;-67
2021/04/23 11:26:52;;;;;;;6.95;2.25;;;;;;;25.54;20.03;99698.31;5082305;28;20533;-66
2021/04/23 11:29:28;;;;;;;6.47;2.22;;;;;;;26.79;21.12;99692.75;5081052;28;20706;-67
2021/04/23 11:32:22;;;;;;;8.68;2.92;;;;;;;25.93;20.89;99683.78;5084446;28;20032;-66
2021/04/23 11:34:57;;;;;;;5.80;2.30;;;;;;;27.14;19.60;99681.66;5055855;28;20039;-67
2021/04/23 11:37:27;;;;;;;7.00;2.70;;;;;;;27.10;20.14;99664.75;5062672;28;20056;-67